createdAt,value
2019-02-03T00:00:30.787Z,89.23
2019-02-03T00:03:02.751Z,89.42
2019-02-03T00:05:35.007Z,89.91
2019-02-03T00:08:07.028Z,90.17
2019-02-03T00:10:38.876Z,90.58
2019-02-03T00:13:10.699Z,90.07
2019-02-03T00:15:42.567Z,89.64
2019-02-03T00:18:14.444Z,89.82
2019-02-03T00:20:46.195Z,90.06
2019-02-03T00:23:19.054Z,89.79
2019-02-03T00:25:52.470Z,89.69
2019-02-03T00:28:24.718Z,89.72
2019-02-03T00:30:56.545Z,89.91
2019-02-03T00:33:31.497Z,90.27
2019-02-03T00:36:03.422Z,90.52
2019-02-03T00:38:37.042Z,89.37
2019-02-03T00:41:12.023Z,89.45
2019-02-03T00:43:43.794Z,89.60
2019-02-03T00:46:15.674Z,89.65
2019-02-03T00:48:47.465Z,89.64
2019-02-03T00:51:19.375Z,89.95
2019-02-03T00:53:51.203Z,90.12
2019-02-03T00:56:23.010Z,89.86
2019-02-03T00:58:54.834Z,89.25
2019-02-03T01:01:27.737Z,89.09
2019-02-03T01:04:01.118Z,89.40
2019-02-03T01:06:33.180Z,89.39
2019-02-03T01:09:11.236Z,89.77
2019-02-03T01:11:45.689Z,89.44
2019-02-03T01:14:17.470Z,89.91
2019-02-03T01:16:49.346Z,89.54
2019-02-03T01:19:21.170Z,90.39
2019-02-03T01:21:56.126Z,90.05
2019-02-03T01:24:31.006Z,90.26
2019-02-03T01:27:02.910Z,90.61
2019-02-03T01:29:35.254Z,90.50
2019-02-03T01:32:07.339Z,90.64
2019-02-03T01:34:40.302Z,90.50
2019-02-03T01:37:12.231Z,90.83
2019-02-03T01:39:44.042Z,90.80
2019-02-03T01:42:15.814Z,91.29
2019-02-03T01:44:47.791Z,91.58
2019-02-03T01:47:19.602Z,91.54
2019-02-03T01:49:51.557Z,91.24
2019-02-03T01:52:23.462Z,91.22
2019-02-03T01:54:57.618Z,91.96
2019-02-03T01:57:30.522Z,91.82
2019-02-03T02:00:04.634Z,92.16
2019-02-03T02:02:36.954Z,91.79
2019-02-03T02:05:12.157Z,91.80
2019-02-03T02:07:51.189Z,92.39
2019-02-03T02:10:21.829Z,92.82
2019-02-03T02:12:55.355Z,93.52
2019-02-03T02:15:27.339Z,93.40
2019-02-03T02:17:59.136Z,93.49
2019-02-03T02:20:31.304Z,94.41
2019-02-03T02:23:06.896Z,94.12
2019-02-03T02:25:41.877Z,94.08
2019-02-03T02:28:14.785Z,94.33
2019-02-03T02:30:46.893Z,94.75
2019-02-03T02:33:18.770Z,95.38
2019-02-03T02:35:50.848Z,95.24
2019-02-03T02:38:24.289Z,95.53
2019-02-03T02:40:56.098Z,95.10
2019-02-03T02:43:28.019Z,95.05
2019-02-03T02:45:59.851Z,95.51
2019-02-03T02:48:31.751Z,96.16
2019-02-03T02:51:03.640Z,95.82
2019-02-03T02:53:35.481Z,95.80
2019-02-03T02:56:07.442Z,96.21
2019-02-03T02:58:41.357Z,96.31
2019-02-03T03:01:13.141Z,95.98
2019-02-03T03:03:45.125Z,95.83
2019-02-03T03:06:18.461Z,95.44
2019-02-03T03:08:50.413Z,94.45
2019-02-03T03:11:22.362Z,93.84
2019-02-03T03:13:57.404Z,93.90
2019-02-03T03:16:33.106Z,94.15
2019-02-03T03:19:04.974Z,94.10
2019-02-03T03:21:37.023Z,94.37
2019-02-03T03:24:10.093Z,94.29
2019-02-03T03:26:42.178Z,94.19
2019-02-03T03:29:16.616Z,93.87
2019-02-03T03:31:48.366Z,93.46
2019-02-03T03:34:21.037Z,93.55
2019-02-03T03:36:52.942Z,93.73
2019-02-03T03:39:24.798Z,93.96
2019-02-03T03:41:56.597Z,93.90
2019-02-03T03:44:28.397Z,93.86
2019-02-03T03:47:00.174Z,93.48
2019-02-03T03:49:31.955Z,93.66
2019-02-03T03:52:03.805Z,93.55
2019-02-03T03:54:35.600Z,94.22
2019-02-03T03:57:07.846Z,94.11
2019-02-03T03:59:39.589Z,93.67
2019-02-03T04:02:11.385Z,94.16
2019-02-03T04:04:45.775Z,94.73
2019-02-03T04:07:16.779Z,95.39
2019-02-03T04:09:48.692Z,95.77
2019-02-03T04:12:20.481Z,95.99
2019-02-03T04:14:52.323Z,96.22
2019-02-03T04:17:24.253Z,96.17
2019-02-03T04:19:56.134Z,96.19
2019-02-03T04:22:27.978Z,95.96
2019-02-03T04:24:59.755Z,95.91
2019-02-03T04:27:31.542Z,96.25
2019-02-03T04:30:03.363Z,96.30
2019-02-03T04:32:35.554Z,96.91
2019-02-03T04:35:07.760Z,96.95
2019-02-03T04:37:39.563Z,96.15
2019-02-03T04:40:14.690Z,95.89
2019-02-03T04:42:46.599Z,95.91
2019-02-03T04:45:22.355Z,96.52
2019-02-03T04:47:52.760Z,95.87
2019-02-03T04:50:24.675Z,96.11
2019-02-03T04:52:56.457Z,96.02
2019-02-03T04:55:28.266Z,95.91
2019-02-03T04:58:01.120Z,95.64
2019-02-03T05:00:32.884Z,95.72
2019-02-03T05:03:04.847Z,94.91
2019-02-03T05:05:36.652Z,94.82
2019-02-03T05:08:08.593Z,94.69
2019-02-03T05:10:40.766Z,94.51
2019-02-03T05:13:12.712Z,94.37
2019-02-03T05:15:44.631Z,94.44
2019-02-03T05:18:16.812Z,94.39
2019-02-03T05:20:48.621Z,94.59
2019-02-03T05:23:20.465Z,94.01
2019-02-03T05:25:54.580Z,93.87
2019-02-03T05:28:25.912Z,93.88
2019-02-03T05:30:57.834Z,93.76
2019-02-03T05:33:29.660Z,93.00
2019-02-03T05:36:01.462Z,93.27
2019-02-03T05:38:33.280Z,92.68
2019-02-03T05:41:05.348Z,92.17
2019-02-03T05:43:37.188Z,92.32
2019-02-03T05:46:09.044Z,92.77
2019-02-03T05:48:40.950Z,93.36
2019-02-03T05:51:12.812Z,93.02
2019-02-03T05:53:44.654Z,92.78
2019-02-03T05:56:16.427Z,92.67
2019-02-03T05:58:49.300Z,92.84
2019-02-03T06:01:21.286Z,92.50
2019-02-03T06:03:53.373Z,92.63
2019-02-03T06:06:25.310Z,92.82
2019-02-03T06:08:57.114Z,92.99
2019-02-03T06:11:28.922Z,92.98
2019-02-03T06:14:00.713Z,93.19
2019-02-03T06:16:32.615Z,93.31
2019-02-03T06:19:04.546Z,93.36
2019-02-03T06:21:36.420Z,93.36
2019-02-03T06:24:08.316Z,93.54
2019-02-03T06:26:40.121Z,93.30
2019-02-03T06:29:11.912Z,93.28
2019-02-03T06:31:43.895Z,93.59
2019-02-03T06:34:15.756Z,93.58
2019-02-03T06:36:47.578Z,93.58
2019-02-03T06:39:19.701Z,93.58
2019-02-03T06:41:53.858Z,94.09
2019-02-03T06:44:25.663Z,94.68
2019-02-03T06:47:03.396Z,94.52
2019-02-03T06:49:39.847Z,94.08
2019-02-03T06:52:11.760Z,93.95
2019-02-03T06:54:45.576Z,94.46
2019-02-03T06:57:17.127Z,94.30
2019-02-03T06:59:50.946Z,94.22
2019-02-03T07:02:22.798Z,94.42
2019-02-03T07:04:54.614Z,94.52
2019-02-03T07:07:26.511Z,95.49
2019-02-03T07:10:00.690Z,96.08
2019-02-03T07:12:32.073Z,95.50
2019-02-03T07:15:05.071Z,95.06
2019-02-03T07:17:37.014Z,94.60
2019-02-03T07:20:10.139Z,94.70
2019-02-03T07:22:42.210Z,94.54
2019-02-03T07:25:14.268Z,94.68
2019-02-03T07:27:46.277Z,94.50
2019-02-03T07:30:18.183Z,94.30
2019-02-03T07:32:50.092Z,94.15
2019-02-03T07:35:21.973Z,94.08
2019-02-03T07:37:53.831Z,93.92
2019-02-03T07:40:25.679Z,94.35
2019-02-03T07:42:57.493Z,94.41
2019-02-03T07:45:29.617Z,94.35
2019-02-03T07:48:01.436Z,95.85
2019-02-03T07:50:33.373Z,95.57
2019-02-03T07:53:08.384Z,96.01
2019-02-03T07:55:38.724Z,96.19
2019-02-03T07:58:12.430Z,96.69
2019-02-03T08:00:44.309Z,96.01
2019-02-03T08:03:16.207Z,95.20
2019-02-03T08:05:48.011Z,96.93
2019-02-03T08:08:19.897Z,97.18
2019-02-03T08:10:51.732Z,96.82
2019-02-03T08:13:23.549Z,97.46
2019-02-03T08:15:55.431Z,97.35
2019-02-03T08:18:27.277Z,96.85
2019-02-03T08:20:59.217Z,96.57
2019-02-03T08:23:31.113Z,97.24
2019-02-03T08:26:02.903Z,96.91
2019-02-03T08:28:34.794Z,95.62
2019-02-03T08:31:06.709Z,96.09
2019-02-03T08:33:38.503Z,96.85
2019-02-03T08:36:11.527Z,96.25
2019-02-03T08:38:43.443Z,95.48
2019-02-03T08:41:15.240Z,94.88
2019-02-03T08:43:47.050Z,94.44
2019-02-03T08:46:18.819Z,94.39
2019-02-03T08:48:51.996Z,93.75
2019-02-03T08:51:24.072Z,94.55
2019-02-03T08:53:55.928Z,95.09
2019-02-03T08:56:28.023Z,95.49
2019-02-03T08:58:59.846Z,95.75
2019-02-03T09:01:31.679Z,95.70
2019-02-03T09:04:03.466Z,95.86
2019-02-03T09:06:35.378Z,96.19
2019-02-03T09:09:11.159Z,96.26
2019-02-03T09:11:43.082Z,96.62
2019-02-03T09:14:14.948Z,95.97
2019-02-03T09:16:46.810Z,95.57
2019-02-03T09:19:18.910Z,95.24
2019-02-03T09:21:54.436Z,95.09
2019-02-03T09:24:26.257Z,94.96
2019-02-03T09:26:59.412Z,95.11
2019-02-03T09:29:31.547Z,95.32
2019-02-03T09:32:06.636Z,94.74
2019-02-03T09:34:38.703Z,94.87
2019-02-03T09:37:10.772Z,95.09
2019-02-03T09:39:42.691Z,95.18
2019-02-03T09:42:16.147Z,95.82
2019-02-03T09:44:48.037Z,96.38
2019-02-03T09:47:20.226Z,96.13
2019-02-03T09:49:53.598Z,95.59
2019-02-03T09:52:27.239Z,95.22
2019-02-03T09:55:00.882Z,95.53
2019-02-03T09:57:32.872Z,95.79
2019-02-03T10:00:28.387Z,94.99
2019-02-03T10:03:02.423Z,94.84
2019-02-03T10:05:37.304Z,95.49
2019-02-03T10:08:10.472Z,95.08
2019-02-03T10:10:44.567Z,95.65
2019-02-03T10:13:16.499Z,95.72
2019-02-03T10:15:48.450Z,94.96
2019-02-03T10:18:20.268Z,94.72
2019-02-03T10:20:52.144Z,95.39
2019-02-03T10:23:24.091Z,94.87
2019-02-03T10:25:56.028Z,94.44
2019-02-03T10:28:27.892Z,94.94
2019-02-03T10:30:59.964Z,95.65
2019-02-03T10:33:34.002Z,95.62
2019-02-03T10:36:06.926Z,94.93
2019-02-03T10:38:39.035Z,95.95
2019-02-03T10:41:11.049Z,96.30
2019-02-03T10:43:43.171Z,96.57
2019-02-03T10:46:16.622Z,96.78
2019-02-03T10:49:09.482Z,96.62
2019-02-03T10:51:43.746Z,96.14
2019-02-03T10:54:15.738Z,95.19
2019-02-03T10:56:47.691Z,94.66
2019-02-03T10:59:19.757Z,95.06
2019-02-03T11:04:58.749Z,94.31
2019-02-03T11:07:30.766Z,95.21
2019-02-03T11:10:02.725Z,94.94
2019-02-03T11:12:35.027Z,95.56
2019-02-03T11:15:10.155Z,95.75
2019-02-03T11:17:43.345Z,95.81
2019-02-03T11:20:20.839Z,96.50
2019-02-03T11:22:52.985Z,95.78
2019-02-03T11:25:27.229Z,96.31
2019-02-03T11:27:59.584Z,96.35
2019-02-03T11:30:34.583Z,96.29
2019-02-03T11:33:09.958Z,96.63
2019-02-03T11:35:42.186Z,96.60
2019-02-03T11:56:00.102Z,95.26
2019-02-03T11:58:32.285Z,95.33
2019-02-03T12:01:04.396Z,95.48
2019-02-03T12:03:38.517Z,95.62
2019-02-03T12:06:11.105Z,95.80
2019-02-03T12:08:45.759Z,96.07
2019-02-03T12:11:17.682Z,96.19
2019-02-03T12:13:52.535Z,96.58
2019-02-03T12:16:26.068Z,96.70
2019-02-03T12:19:01.370Z,96.63
2019-02-03T12:21:36.388Z,97.10
2019-02-03T12:24:08.812Z,97.52
2019-02-03T12:26:44.182Z,97.06
2019-02-03T12:29:16.692Z,96.35
2019-02-03T12:31:52.095Z,96.25
2019-02-03T12:34:25.446Z,96.43
2019-02-03T12:37:02.263Z,96.36
2019-02-03T12:39:34.560Z,96.63
2019-02-03T12:42:13.308Z,96.54
2019-02-03T12:44:43.010Z,95.45
2019-02-03T12:47:18.994Z,95.99
2019-02-03T12:49:51.555Z,95.84
2019-02-03T12:52:23.433Z,95.72
2019-02-03T12:54:58.998Z,95.71
2019-02-03T12:57:31.025Z,96.12
2019-02-03T13:00:02.912Z,96.35
2019-02-03T13:02:36.144Z,96.65
2019-02-03T13:05:09.258Z,96.49
2019-02-03T13:07:43.821Z,96.04
2019-02-03T13:10:22.836Z,96.01
2019-02-03T13:12:57.570Z,95.81
2019-02-03T13:15:45.779Z,95.86
2019-02-03T13:18:19.081Z,95.22
2019-02-03T13:20:51.505Z,95.25
2019-02-03T13:23:23.607Z,95.17
2019-02-03T13:25:55.466Z,95.30
2019-02-03T13:28:27.380Z,95.62
2019-02-03T13:30:59.224Z,95.75
2019-02-03T13:33:31.303Z,95.74
2019-02-03T13:36:03.192Z,96.17
2019-02-03T13:38:35.448Z,95.92
2019-02-03T13:41:09.200Z,95.08
2019-02-03T13:43:41.507Z,95.36
2019-02-03T13:46:37.702Z,95.17
2019-02-03T13:49:13.359Z,95.30
2019-02-03T13:51:51.694Z,95.73
2019-02-03T13:54:27.687Z,96.04
2019-02-03T13:57:05.053Z,95.65
2019-02-03T14:06:24.074Z,95.29
2019-02-03T14:08:59.106Z,95.22
2019-02-03T14:11:31.124Z,94.96
2019-02-03T14:14:03.050Z,93.98
2019-02-03T14:16:34.965Z,93.47
2019-02-03T14:19:06.948Z,93.11
2019-02-03T14:21:38.969Z,93.67
2019-02-03T14:24:10.956Z,93.84
2019-02-03T14:26:46.342Z,94.45
2019-02-03T14:29:22.516Z,94.49
2019-02-03T14:32:11.195Z,94.85
2019-02-03T14:42:20.915Z,95.52
2019-02-03T14:45:49.502Z,95.77
2019-02-03T14:48:50.698Z,95.26
2019-02-03T14:51:51.797Z,94.21
2019-02-03T14:54:27.588Z,94.44
2019-02-03T14:56:59.659Z,94.29
2019-02-03T14:59:58.800Z,94.90
2019-02-03T15:10:26.660Z,96.46
2019-02-03T15:15:20.639Z,95.64
2019-02-03T15:24:59.744Z,97.02
2019-02-03T15:27:58.571Z,97.72
2019-02-03T15:51:04.415Z,97.23
2019-02-03T15:53:37.550Z,97.29
2019-02-03T15:56:09.380Z,97.50
2019-02-03T15:58:56.827Z,97.11
2019-02-03T16:01:22.895Z,96.93
2019-02-03T16:03:58.125Z,96.92
2019-02-03T16:06:30.053Z,96.67
2019-02-03T16:09:01.880Z,96.79
2019-02-03T16:11:35.736Z,96.65
2019-02-03T16:14:10.963Z,96.86
2019-02-03T16:16:43.116Z,96.98
2019-02-03T16:19:15.174Z,96.95
2019-02-03T16:21:47.363Z,97.15
2019-02-03T16:24:19.136Z,97.76
2019-02-03T16:26:51.020Z,97.79
2019-02-03T16:29:24.129Z,98.05
2019-02-03T16:31:56.582Z,98.46
2019-02-03T16:34:30.261Z,98.14
2019-02-03T16:37:02.303Z,98.14
2019-02-03T16:39:37.453Z,97.60
2019-02-03T16:42:09.647Z,97.29
2019-02-03T16:44:41.560Z,97.25
2019-02-03T16:47:13.450Z,97.43
2019-02-03T16:49:46.687Z,97.44
2019-02-03T16:52:18.801Z,97.34
2019-02-03T16:54:50.627Z,97.45
2019-02-03T16:57:22.798Z,97.79
2019-02-03T16:59:57.460Z,97.56
2019-02-03T17:02:34.029Z,97.44
2019-02-03T17:05:08.362Z,97.50
2019-02-03T17:07:40.740Z,96.73
2019-02-03T17:10:14.490Z,96.38
2019-02-03T17:12:46.420Z,96.07
2019-02-03T17:15:25.708Z,95.91
2019-02-03T17:17:57.531Z,96.54
2019-02-03T17:20:30.661Z,96.38
2019-02-03T17:23:10.284Z,96.40
2019-02-03T17:25:55.702Z,96.59
2019-02-03T17:28:27.624Z,96.56
2019-02-03T17:30:59.411Z,96.88
2019-02-03T17:33:31.594Z,96.77
2019-02-03T17:36:03.601Z,96.37
2019-02-03T17:38:36.786Z,96.21
2019-02-03T17:41:10.287Z,96.33
2019-02-03T17:43:43.594Z,96.11
2019-02-03T17:46:15.937Z,95.91
2019-02-03T17:48:47.867Z,95.49
2019-02-03T17:51:19.722Z,95.70
2019-02-03T17:53:55.822Z,95.76
2019-02-03T17:56:30.104Z,95.68
2019-02-03T17:59:19.219Z,95.63
2019-02-03T18:01:54.875Z,95.39
2019-02-03T18:04:28.389Z,95.52
2019-02-03T18:07:04.366Z,95.79
2019-02-03T18:09:48.168Z,96.09
2019-02-03T18:12:24.061Z,96.32
2019-02-03T18:14:56.332Z,96.76
2019-02-03T18:17:28.930Z,96.29
2019-02-03T18:20:01.561Z,96.08
2019-02-03T18:22:44.571Z,96.08
2019-02-03T18:25:31.519Z,96.12
2019-02-03T18:28:03.966Z,95.73
2019-02-03T18:30:36.157Z,95.59
2019-02-03T18:33:13.602Z,95.88
2019-02-03T18:35:45.946Z,96.49
2019-02-03T18:38:18.246Z,96.42
2019-02-03T18:40:50.424Z,96.09
2019-02-03T18:43:22.716Z,95.99
2019-02-03T18:45:54.770Z,96.04
2019-02-03T18:48:27.817Z,95.84
2019-02-03T18:51:36.142Z,96.10
2019-02-03T18:54:10.002Z,96.41
2019-02-03T18:56:41.989Z,96.80
2019-02-03T18:59:13.986Z,97.05
2019-02-03T19:01:46.317Z,96.80
2019-02-03T19:04:18.626Z,96.63
2019-02-03T19:06:52.094Z,96.51
2019-02-03T19:09:24.178Z,96.75
2019-02-03T19:11:57.732Z,96.31
2019-02-03T19:14:31.252Z,96.09
2019-02-03T19:17:06.459Z,95.75
2019-02-03T19:19:42.693Z,96.20
2019-02-03T19:22:14.821Z,96.42
2019-02-03T19:24:47.918Z,95.85
2019-02-03T19:27:23.218Z,95.87
2019-02-03T19:29:56.920Z,96.05
2019-02-03T19:32:28.808Z,96.36
2019-02-03T19:35:06.405Z,97.09
2019-02-03T19:37:37.953Z,97.12
2019-02-03T19:40:24.369Z,97.14
2019-02-03T19:42:58.991Z,96.96
2019-02-03T19:45:31.909Z,97.04
2019-02-03T19:48:04.447Z,97.30
2019-02-03T19:50:42.671Z,97.38
2019-02-03T19:53:14.758Z,97.44
2019-02-03T19:55:47.743Z,97.71
2019-02-03T19:58:19.803Z,98.00
2019-02-03T20:00:51.861Z,97.92
2019-02-03T20:03:23.739Z,97.97
2019-02-03T20:05:56.844Z,98.00
2019-02-03T20:08:31.188Z,98.16
2019-02-03T20:11:10.128Z,98.61
2019-02-03T20:13:42.341Z,98.46
2019-02-03T20:16:15.659Z,98.40
2019-02-03T20:18:47.988Z,98.36
2019-02-03T20:21:21.439Z,98.32
2019-02-03T20:23:53.498Z,98.82
2019-02-03T20:26:39.808Z,99.17
2019-02-03T20:29:12.218Z,99.13
2019-02-03T20:31:45.136Z,98.24
2019-02-03T20:34:17.969Z,98.64
2019-02-03T20:36:52.353Z,98.61
2019-02-03T20:39:26.250Z,98.49
2019-02-03T20:42:31.673Z,98.04
2019-02-03T20:45:03.629Z,98.43
2019-02-03T20:47:36.651Z,98.27
2019-02-03T20:50:12.446Z,97.92
2019-02-03T20:52:44.369Z,97.69
2019-02-03T20:55:17.170Z,97.59
2019-02-03T20:57:50.194Z,97.25
2019-02-03T21:00:25.007Z,97.04
2019-02-03T21:02:56.900Z,97.01
2019-02-03T21:05:28.868Z,97.14
2019-02-03T21:08:00.789Z,97.30
2019-02-03T21:10:32.653Z,97.37
2019-02-03T21:13:11.077Z,97.26
2019-02-03T21:15:38.914Z,97.33
2019-02-03T21:18:11.194Z,97.28
2019-02-03T21:20:43.118Z,96.99
2019-02-03T21:23:16.399Z,96.96
2019-02-03T21:25:48.385Z,97.00
2019-02-03T21:28:20.269Z,97.02
2019-02-03T21:30:52.066Z,96.97
2019-02-03T21:33:23.853Z,96.96
2019-02-03T21:35:55.697Z,96.74
2019-02-03T21:38:28.092Z,96.91
2019-02-03T21:40:59.960Z,96.93
2019-02-03T21:43:31.836Z,97.03
2019-02-03T21:46:03.651Z,96.85
2019-02-03T21:48:35.609Z,96.51
2019-02-03T21:51:07.556Z,96.57
2019-02-03T21:53:39.667Z,96.56
2019-02-03T21:56:11.541Z,96.81
2019-02-03T21:58:43.413Z,96.37
2019-02-03T22:01:15.150Z,96.57
2019-02-03T22:03:47.041Z,96.61
2019-02-03T22:06:18.852Z,96.51
2019-02-03T22:08:50.735Z,96.02
2019-02-03T22:11:22.632Z,95.96
2019-02-03T22:13:54.472Z,96.02
2019-02-03T22:16:26.231Z,95.77
2019-02-03T22:18:58.064Z,95.57
2019-02-03T22:21:29.840Z,95.91
2019-02-03T22:24:01.613Z,95.70
2019-02-03T22:26:33.452Z,95.86
2019-02-03T22:29:05.394Z,95.51
2019-02-03T22:31:37.196Z,95.98
2019-02-03T22:34:08.998Z,95.82
2019-02-03T22:36:40.848Z,95.54
2019-02-03T22:39:12.636Z,95.54
2019-02-03T22:41:47.040Z,95.79
2019-02-03T22:44:17.947Z,95.49
2019-02-03T22:46:49.720Z,95.32
2019-02-03T22:49:21.536Z,95.45
2019-02-03T22:51:53.713Z,95.58
2019-02-03T22:54:25.521Z,95.64
2019-02-03T22:56:57.300Z,95.65
2019-02-03T22:59:29.098Z,95.75
2019-02-03T23:02:00.884Z,95.77
2019-02-03T23:04:36.478Z,95.66
2019-02-03T23:07:08.295Z,95.53
2019-02-03T23:09:40.116Z,95.57
2019-02-03T23:12:11.885Z,95.63
2019-02-03T23:14:44.008Z,96.12
2019-02-03T23:17:15.876Z,95.26
2019-02-03T23:19:47.716Z,95.04
2019-02-03T23:22:19.528Z,95.35
2019-02-03T23:24:52.484Z,95.31
2019-02-03T23:27:24.288Z,95.07
2019-02-03T23:29:56.276Z,94.92
2019-02-03T23:32:28.066Z,94.93
2019-02-03T23:34:59.875Z,94.51
2019-02-03T23:37:31.690Z,94.67
2019-02-03T23:40:03.455Z,93.90
2019-02-03T23:42:35.287Z,93.67
2019-02-03T23:45:08.067Z,93.97
2019-02-03T23:47:39.961Z,93.72
2019-02-03T23:50:14.014Z,93.63
2019-02-03T23:52:45.847Z,93.18
2019-02-03T23:55:17.617Z,93.33
2019-02-03T23:57:49.488Z,93.28
